sensor_id;sensor_type;location;lat;lon;timestamp;P1;durP1;ratioP1;P2;durP2;ratioP2
17832;SDS011;9041;49.718;21.798;2023-12-20T00:01:07;66.07;;;26.23;;
17832;SDS011;9041;49.718;21.798;2023-12-20T00:03:33;64.70;;;26.40;;
17832;SDS011;9041;49.718;21.798;2023-12-20T00:06:00;62.10;;;25.47;;
17832;SDS011;9041;49.718;21.798;2023-12-20T00:08:27;80.57;;;29.87;;
17832;SDS011;9041;49.718;21.798;2023-12-20T00:10:53;77.43;;;29.07;;
17832;SDS011;9041;49.718;21.798;2023-12-20T00:13:20;61.60;;;22.93;;
17832;SDS011;9041;49.718;21.798;2023-12-20T00:15:47;59.53;;;23.70;;
17832;SDS011;9041;49.718;21.798;2023-12-20T00:18:15;83.73;;;31.77;;
17832;SDS011;9041;49.718;21.798;2023-12-20T00:20:42;60.23;;;24.43;;
17832;SDS011;9041;49.718;21.798;2023-12-20T00:23:09;72.07;;;27.53;;
17832;SDS011;9041;49.718;21.798;2023-12-20T00:25:35;64.60;;;24.77;;
17832;SDS011;9041;49.718;21.798;2023-12-20T00:28:02;59.37;;;25.23;;
17832;SDS011;9041;49.718;21.798;2023-12-20T00:30:29;57.27;;;22.80;;
17832;SDS011;9041;49.718;21.798;2023-12-20T00:32:55;52.60;;;22.47;;
17832;SDS011;9041;49.718;21.798;2023-12-20T00:35:23;53.03;;;21.37;;
17832;SDS011;9041;49.718;21.798;2023-12-20T00:37:50;50.37;;;22.17;;
17832;SDS011;9041;49.718;21.798;2023-12-20T00:40:17;57.53;;;23.10;;
17832;SDS011;9041;49.718;21.798;2023-12-20T00:42:43;50.47;;;21.97;;
17832;SDS011;9041;49.718;21.798;2023-12-20T00:45:11;55.87;;;21.80;;
17832;SDS011;9041;49.718;21.798;2023-12-20T00:47:38;57.67;;;23.63;;
17832;SDS011;9041;49.718;21.798;2023-12-20T00:50:05;58.47;;;23.67;;
17832;SDS011;9041;49.718;21.798;2023-12-20T00:52:34;54.37;;;20.70;;
17832;SDS011;9041;49.718;21.798;2023-12-20T00:55:01;55.70;;;20.60;;
17832;SDS011;9041;49.718;21.798;2023-12-20T00:57:28;54.87;;;20.13;;
17832;SDS011;9041;49.718;21.798;2023-12-20T00:59:54;49.93;;;19.80;;
17832;SDS011;9041;49.718;21.798;2023-12-20T01:02:21;53.27;;;20.90;;
17832;SDS011;9041;49.718;21.798;2023-12-20T01:04:48;49.77;;;21.93;;
17832;SDS011;9041;49.718;21.798;2023-12-20T01:07:14;52.93;;;20.63;;
17832;SDS011;9041;49.718;21.798;2023-12-20T01:09:42;56.60;;;22.43;;
17832;SDS011;9041;49.718;21.798;2023-12-20T01:12:17;51.47;;;20.67;;
17832;SDS011;9041;49.718;21.798;2023-12-20T01:14:45;58.03;;;22.73;;
17832;SDS011;9041;49.718;21.798;2023-12-20T01:17:12;52.43;;;22.20;;
17832;SDS011;9041;49.718;21.798;2023-12-20T01:19:38;57.27;;;21.20;;
17832;SDS011;9041;49.718;21.798;2023-12-20T01:22:05;64.83;;;22.87;;
17832;SDS011;9041;49.718;21.798;2023-12-20T01:24:31;65.37;;;26.07;;
17832;SDS011;9041;49.718;21.798;2023-12-20T01:26:59;59.57;;;23.77;;
17832;SDS011;9041;49.718;21.798;2023-12-20T01:29:26;56.23;;;22.50;;
17832;SDS011;9041;49.718;21.798;2023-12-20T01:31:52;56.60;;;21.33;;
17832;SDS011;9041;49.718;21.798;2023-12-20T01:34:19;59.20;;;24.40;;
17832;SDS011;9041;49.718;21.798;2023-12-20T01:36:46;60.80;;;23.07;;
17832;SDS011;9041;49.718;21.798;2023-12-20T01:39:12;94.03;;;30.43;;
17832;SDS011;9041;49.718;21.798;2023-12-20T01:41:39;77.27;;;27.17;;
17832;SDS011;9041;49.718;21.798;2023-12-20T01:44:07;66.27;;;26.20;;
17832;SDS011;9041;49.718;21.798;2023-12-20T01:46:34;59.53;;;24.43;;
17832;SDS011;9041;49.718;21.798;2023-12-20T01:49:01;69.97;;;30.10;;
17832;SDS011;9041;49.718;21.798;2023-12-20T01:51:28;67.67;;;26.37;;
17832;SDS011;9041;49.718;21.798;2023-12-20T01:53:55;58.33;;;23.37;;
17832;SDS011;9041;49.718;21.798;2023-12-20T01:56:22;70.23;;;26.57;;
17832;SDS011;9041;49.718;21.798;2023-12-20T01:58:49;69.30;;;28.13;;
17832;SDS011;9041;49.718;21.798;2023-12-20T02:01:17;56.47;;;24.20;;
17832;SDS011;9041;49.718;21.798;2023-12-20T02:03:44;65.87;;;27.03;;
17832;SDS011;9041;49.718;21.798;2023-12-20T02:06:11;61.27;;;24.17;;
17832;SDS011;9041;49.718;21.798;2023-12-20T02:08:37;57.00;;;23.87;;
17832;SDS011;9041;49.718;21.798;2023-12-20T02:11:04;53.37;;;22.87;;
17832;SDS011;9041;49.718;21.798;2023-12-20T02:13:31;54.00;;;20.30;;
17832;SDS011;9041;49.718;21.798;2023-12-20T02:15:57;58.93;;;23.23;;
17832;SDS011;9041;49.718;21.798;2023-12-20T02:18:25;60.77;;;23.27;;
17832;SDS011;9041;49.718;21.798;2023-12-20T02:20:55;59.37;;;21.70;;
17832;SDS011;9041;49.718;21.798;2023-12-20T02:23:23;55.87;;;21.97;;
17832;SDS011;9041;49.718;21.798;2023-12-20T02:25:49;57.17;;;21.50;;
17832;SDS011;9041;49.718;21.798;2023-12-20T02:28:16;58.30;;;22.43;;
17832;SDS011;9041;49.718;21.798;2023-12-20T02:30:43;55.17;;;22.50;;
17832;SDS011;9041;49.718;21.798;2023-12-20T02:33:10;55.73;;;21.00;;
17832;SDS011;9041;49.718;21.798;2023-12-20T02:35:38;52.17;;;20.50;;
17832;SDS011;9041;49.718;21.798;2023-12-20T02:38:05;51.60;;;21.53;;
17832;SDS011;9041;49.718;21.798;2023-12-20T02:40:32;56.53;;;21.60;;
17832;SDS011;9041;49.718;21.798;2023-12-20T02:42:59;53.33;;;21.23;;
17832;SDS011;9041;49.718;21.798;2023-12-20T02:45:26;48.37;;;20.60;;
17832;SDS011;9041;49.718;21.798;2023-12-20T02:48:00;55.60;;;21.70;;
17832;SDS011;9041;49.718;21.798;2023-12-20T02:50:26;62.87;;;21.70;;
17832;SDS011;9041;49.718;21.798;2023-12-20T02:52:53;57.17;;;22.40;;
17832;SDS011;9041;49.718;21.798;2023-12-20T02:55:20;56.87;;;21.67;;
17832;SDS011;9041;49.718;21.798;2023-12-20T02:57:48;60.00;;;21.50;;
17832;SDS011;9041;49.718;21.798;2023-12-20T03:00:14;55.53;;;21.47;;
17832;SDS011;9041;49.718;21.798;2023-12-20T03:02:41;51.53;;;21.60;;
17832;SDS011;9041;49.718;21.798;2023-12-20T03:05:08;48.53;;;20.60;;
17832;SDS011;9041;49.718;21.798;2023-12-20T03:07:36;50.10;;;19.37;;
17832;SDS011;9041;49.718;21.798;2023-12-20T03:10:03;50.97;;;19.50;;
17832;SDS011;9041;49.718;21.798;2023-12-20T03:12:34;52.17;;;20.90;;
17832;SDS011;9041;49.718;21.798;2023-12-20T03:15:02;50.00;;;20.67;;
17832;SDS011;9041;49.718;21.798;2023-12-20T03:17:28;49.13;;;20.17;;
17832;SDS011;9041;49.718;21.798;2023-12-20T03:19:54;52.73;;;20.30;;
17832;SDS011;9041;49.718;21.798;2023-12-20T03:22:21;47.60;;;20.10;;
17832;SDS011;9041;49.718;21.798;2023-12-20T03:24:48;50.37;;;19.83;;
17832;SDS011;9041;49.718;21.798;2023-12-20T03:27:14;50.47;;;20.20;;
17832;SDS011;9041;49.718;21.798;2023-12-20T03:29:41;50.30;;;20.50;;
17832;SDS011;9041;49.718;21.798;2023-12-20T03:32:09;48.77;;;19.43;;
17832;SDS011;9041;49.718;21.798;2023-12-20T03:34:35;51.53;;;20.60;;
17832;SDS011;9041;49.718;21.798;2023-12-20T03:37:02;48.17;;;18.33;;
17832;SDS011;9041;49.718;21.798;2023-12-20T03:39:29;46.03;;;18.50;;
17832;SDS011;9041;49.718;21.798;2023-12-20T03:41:57;50.97;;;19.80;;
17832;SDS011;9041;49.718;21.798;2023-12-20T03:44:23;51.63;;;20.13;;
17832;SDS011;9041;49.718;21.798;2023-12-20T03:46:50;51.60;;;19.73;;
17832;SDS011;9041;49.718;21.798;2023-12-20T03:49:18;49.47;;;18.90;;
17832;SDS011;9041;49.718;21.798;2023-12-20T03:51:44;54.27;;;19.53;;
17832;SDS011;9041;49.718;21.798;2023-12-20T03:54:11;47.23;;;19.90;;
17832;SDS011;9041;49.718;21.798;2023-12-20T03:56:38;49.37;;;20.47;;
17832;SDS011;9041;49.718;21.798;2023-12-20T03:59:04;47.53;;;19.63;;
17832;SDS011;9041;49.718;21.798;2023-12-20T04:01:31;54.57;;;20.13;;
17832;SDS011;9041;49.718;21.798;2023-12-20T04:03:58;50.43;;;19.40;;
17832;SDS011;9041;49.718;21.798;2023-12-20T04:06:26;48.60;;;19.70;;
17832;SDS011;9041;49.718;21.798;2023-12-20T04:08:53;48.80;;;18.17;;
17832;SDS011;9041;49.718;21.798;2023-12-20T04:11:19;50.90;;;18.60;;
17832;SDS011;9041;49.718;21.798;2023-12-20T04:13:46;49.63;;;19.10;;
17832;SDS011;9041;49.718;21.798;2023-12-20T04:16:13;52.97;;;18.83;;
17832;SDS011;9041;49.718;21.798;2023-12-20T04:18:39;47.97;;;18.83;;
17832;SDS011;9041;49.718;21.798;2023-12-20T04:21:06;47.53;;;18.77;;
17832;SDS011;9041;49.718;21.798;2023-12-20T04:23:34;52.67;;;19.07;;
17832;SDS011;9041;49.718;21.798;2023-12-20T04:26:00;48.40;;;20.07;;
17832;SDS011;9041;49.718;21.798;2023-12-20T04:28:27;48.37;;;18.40;;
17832;SDS011;9041;49.718;21.798;2023-12-20T04:30:55;40.87;;;17.10;;
17832;SDS011;9041;49.718;21.798;2023-12-20T04:33:21;45.83;;;17.80;;
17832;SDS011;9041;49.718;21.798;2023-12-20T04:35:48;48.10;;;18.50;;
17832;SDS011;9041;49.718;21.798;2023-12-20T04:38:15;46.47;;;18.37;;
17832;SDS011;9041;49.718;21.798;2023-12-20T04:40:43;41.63;;;17.80;;
17832;SDS011;9041;49.718;21.798;2023-12-20T04:43:10;43.93;;;18.23;;
17832;SDS011;9041;49.718;21.798;2023-12-20T04:45:36;44.93;;;18.53;;
17832;SDS011;9041;49.718;21.798;2023-12-20T04:48:03;46.10;;;18.17;;
17832;SDS011;9041;49.718;21.798;2023-12-20T04:50:30;42.57;;;17.73;;
17832;SDS011;9041;49.718;21.798;2023-12-20T04:52:57;47.03;;;18.27;;
17832;SDS011;9041;49.718;21.798;2023-12-20T04:55:23;45.13;;;18.33;;
17832;SDS011;9041;49.718;21.798;2023-12-20T04:57:51;50.97;;;18.80;;
17832;SDS011;9041;49.718;21.798;2023-12-20T05:00:18;45.57;;;17.60;;
17832;SDS011;9041;49.718;21.798;2023-12-20T05:02:44;48.73;;;18.87;;
17832;SDS011;9041;49.718;21.798;2023-12-20T05:05:11;42.07;;;17.83;;
17832;SDS011;9041;49.718;21.798;2023-12-20T05:07:40;48.53;;;19.00;;
17832;SDS011;9041;49.718;21.798;2023-12-20T05:10:09;44.63;;;18.63;;
17832;SDS011;9041;49.718;21.798;2023-12-20T05:12:36;38.67;;;17.30;;
17832;SDS011;9041;49.718;21.798;2023-12-20T05:15:05;45.87;;;18.20;;
17832;SDS011;9041;49.718;21.798;2023-12-20T05:17:32;51.00;;;18.70;;
17832;SDS011;9041;49.718;21.798;2023-12-20T05:19:59;44.53;;;17.57;;
17832;SDS011;9041;49.718;21.798;2023-12-20T05:22:26;46.07;;;18.97;;
17832;SDS011;9041;49.718;21.798;2023-12-20T05:24:53;45.73;;;18.30;;
17832;SDS011;9041;49.718;21.798;2023-12-20T05:27:20;43.50;;;16.90;;
17832;SDS011;9041;49.718;21.798;2023-12-20T05:29:47;45.60;;;18.07;;
17832;SDS011;9041;49.718;21.798;2023-12-20T05:32:15;48.30;;;18.10;;
17832;SDS011;9041;49.718;21.798;2023-12-20T05:34:41;47.37;;;19.57;;
17832;SDS011;9041;49.718;21.798;2023-12-20T05:37:08;54.47;;;20.53;;
17832;SDS011;9041;49.718;21.798;2023-12-20T05:39:34;47.50;;;19.23;;
17832;SDS011;9041;49.718;21.798;2023-12-20T05:42:01;43.53;;;18.47;;
17832;SDS011;9041;49.718;21.798;2023-12-20T05:44:28;47.77;;;17.93;;
17832;SDS011;9041;49.718;21.798;2023-12-20T05:46:53;51.03;;;19.73;;
17832;SDS011;9041;49.718;21.798;2023-12-20T05:49:21;46.57;;;19.03;;
17832;SDS011;9041;49.718;21.798;2023-12-20T05:51:48;48.30;;;19.10;;
17832;SDS011;9041;49.718;21.798;2023-12-20T05:54:15;53.73;;;19.20;;
17832;SDS011;9041;49.718;21.798;2023-12-20T05:56:41;52.87;;;20.17;;
17832;SDS011;9041;49.718;21.798;2023-12-20T05:59:08;47.63;;;19.23;;
17832;SDS011;9041;49.718;21.798;2023-12-20T06:01:35;47.63;;;19.47;;
17832;SDS011;9041;49.718;21.798;2023-12-20T06:04:01;49.33;;;20.20;;
17832;SDS011;9041;49.718;21.798;2023-12-20T06:06:30;50.83;;;20.60;;
17832;SDS011;9041;49.718;21.798;2023-12-20T06:08:57;46.07;;;18.90;;
17832;SDS011;9041;49.718;21.798;2023-12-20T06:11:23;46.40;;;19.10;;
17832;SDS011;9041;49.718;21.798;2023-12-20T06:13:50;50.53;;;20.50;;
17832;SDS011;9041;49.718;21.798;2023-12-20T06:16:18;45.00;;;19.13;;
17832;SDS011;9041;49.718;21.798;2023-12-20T06:18:45;49.30;;;20.10;;
17832;SDS011;9041;49.718;21.798;2023-12-20T06:21:12;55.83;;;21.47;;
17832;SDS011;9041;49.718;21.798;2023-12-20T06:23:41;55.80;;;22.07;;
17832;SDS011;9041;49.718;21.798;2023-12-20T06:26:08;55.30;;;21.60;;
17832;SDS011;9041;49.718;21.798;2023-12-20T06:28:35;54.60;;;21.83;;
17832;SDS011;9041;49.718;21.798;2023-12-20T06:31:01;47.57;;;19.50;;
17832;SDS011;9041;49.718;21.798;2023-12-20T06:33:28;51.77;;;20.27;;
17832;SDS011;9041;49.718;21.798;2023-12-20T06:35:56;52.87;;;20.83;;
17832;SDS011;9041;49.718;21.798;2023-12-20T06:38:22;51.67;;;21.17;;
17832;SDS011;9041;49.718;21.798;2023-12-20T06:40:50;48.23;;;18.90;;
17832;SDS011;9041;49.718;21.798;2023-12-20T06:43:17;53.23;;;21.10;;
17832;SDS011;9041;49.718;21.798;2023-12-20T06:45:44;50.97;;;21.43;;
17832;SDS011;9041;49.718;21.798;2023-12-20T06:48:10;51.93;;;21.20;;
17832;SDS011;9041;49.718;21.798;2023-12-20T06:50:38;46.83;;;19.60;;
17832;SDS011;9041;49.718;21.798;2023-12-20T06:53:05;50.63;;;19.27;;
17832;SDS011;9041;49.718;21.798;2023-12-20T06:55:32;46.30;;;18.93;;
17832;SDS011;9041;49.718;21.798;2023-12-20T06:58:00;44.90;;;18.60;;
17832;SDS011;9041;49.718;21.798;2023-12-20T07:00:27;45.00;;;19.53;;
17832;SDS011;9041;49.718;21.798;2023-12-20T07:02:53;48.33;;;20.73;;
17832;SDS011;9041;49.718;21.798;2023-12-20T07:05:19;54.23;;;21.63;;
17832;SDS011;9041;49.718;21.798;2023-12-20T07:07:46;43.37;;;18.93;;
17832;SDS011;9041;49.718;21.798;2023-12-20T07:10:17;49.00;;;20.07;;
17832;SDS011;9041;49.718;21.798;2023-12-20T07:12:44;51.00;;;18.97;;
17832;SDS011;9041;49.718;21.798;2023-12-20T07:15:12;43.63;;;18.50;;
17832;SDS011;9041;49.718;21.798;2023-12-20T07:17:39;50.17;;;19.13;;
17832;SDS011;9041;49.718;21.798;2023-12-20T07:20:07;51.97;;;19.37;;
17832;SDS011;9041;49.718;21.798;2023-12-20T07:22:35;48.67;;;19.00;;
17832;SDS011;9041;49.718;21.798;2023-12-20T07:25:02;50.60;;;20.07;;
17832;SDS011;9041;49.718;21.798;2023-12-20T07:27:29;45.07;;;19.70;;
17832;SDS011;9041;49.718;21.798;2023-12-20T07:29:56;49.53;;;20.90;;
17832;SDS011;9041;49.718;21.798;2023-12-20T07:32:24;46.90;;;19.63;;
17832;SDS011;9041;49.718;21.798;2023-12-20T07:34:50;47.30;;;19.87;;
17832;SDS011;9041;49.718;21.798;2023-12-20T07:37:18;45.53;;;19.87;;
17832;SDS011;9041;49.718;21.798;2023-12-20T07:39:46;48.43;;;20.97;;
17832;SDS011;9041;49.718;21.798;2023-12-20T07:42:12;52.67;;;21.17;;
17832;SDS011;9041;49.718;21.798;2023-12-20T07:44:39;46.93;;;20.33;;
17832;SDS011;9041;49.718;21.798;2023-12-20T07:47:06;46.77;;;20.13;;
17832;SDS011;9041;49.718;21.798;2023-12-20T07:49:34;51.47;;;21.73;;
17832;SDS011;9041;49.718;21.798;2023-12-20T07:52:00;55.17;;;23.03;;
17832;SDS011;9041;49.718;21.798;2023-12-20T07:54:27;70.03;;;27.93;;
17832;SDS011;9041;49.718;21.798;2023-12-20T07:56:54;58.03;;;23.30;;
17832;SDS011;9041;49.718;21.798;2023-12-20T07:59:20;61.93;;;26.10;;
17832;SDS011;9041;49.718;21.798;2023-12-20T08:01:47;49.63;;;20.93;;
17832;SDS011;9041;49.718;21.798;2023-12-20T08:04:13;53.23;;;21.20;;
17832;SDS011;9041;49.718;21.798;2023-12-20T08:06:42;55.77;;;21.40;;
17832;SDS011;9041;49.718;21.798;2023-12-20T08:09:08;52.60;;;22.03;;
17832;SDS011;9041;49.718;21.798;2023-12-20T08:11:35;60.40;;;22.67;;
17832;SDS011;9041;49.718;21.798;2023-12-20T08:14:02;51.70;;;22.03;;
17832;SDS011;9041;49.718;21.798;2023-12-20T08:16:28;51.57;;;21.07;;
17832;SDS011;9041;49.718;21.798;2023-12-20T08:18:55;47.00;;;20.20;;
17832;SDS011;9041;49.718;21.798;2023-12-20T08:21:22;47.83;;;20.80;;
17832;SDS011;9041;49.718;21.798;2023-12-20T08:23:50;52.07;;;20.90;;
17832;SDS011;9041;49.718;21.798;2023-12-20T08:26:18;62.27;;;24.00;;
17832;SDS011;9041;49.718;21.798;2023-12-20T08:28:45;53.60;;;22.43;;
17832;SDS011;9041;49.718;21.798;2023-12-20T08:31:13;54.57;;;22.30;;
17832;SDS011;9041;49.718;21.798;2023-12-20T08:33:41;53.97;;;22.20;;
17832;SDS011;9041;49.718;21.798;2023-12-20T08:36:09;46.23;;;19.67;;
17832;SDS011;9041;49.718;21.798;2023-12-20T08:38:36;47.83;;;19.90;;
17832;SDS011;9041;49.718;21.798;2023-12-20T08:41:04;44.77;;;19.13;;
17832;SDS011;9041;49.718;21.798;2023-12-20T08:43:31;47.13;;;20.33;;
17832;SDS011;9041;49.718;21.798;2023-12-20T08:45:57;47.27;;;20.30;;
17832;SDS011;9041;49.718;21.798;2023-12-20T08:48:24;44.70;;;19.27;;
17832;SDS011;9041;49.718;21.798;2023-12-20T08:50:51;43.97;;;18.33;;
17832;SDS011;9041;49.718;21.798;2023-12-20T08:53:17;44.03;;;18.67;;
17832;SDS011;9041;49.718;21.798;2023-12-20T08:55:44;44.20;;;18.93;;
17832;SDS011;9041;49.718;21.798;2023-12-20T08:58:13;46.70;;;19.27;;
17832;SDS011;9041;49.718;21.798;2023-12-20T09:00:42;40.90;;;18.17;;
17832;SDS011;9041;49.718;21.798;2023-12-20T09:03:09;37.80;;;17.83;;
17832;SDS011;9041;49.718;21.798;2023-12-20T09:05:35;43.50;;;19.27;;
17832;SDS011;9041;49.718;21.798;2023-12-20T09:08:02;44.70;;;18.10;;
17832;SDS011;9041;49.718;21.798;2023-12-20T09:10:29;40.83;;;17.57;;
17832;SDS011;9041;49.718;21.798;2023-12-20T09:12:56;44.60;;;18.47;;
17832;SDS011;9041;49.718;21.798;2023-12-20T09:15:25;38.97;;;16.77;;
17832;SDS011;9041;49.718;21.798;2023-12-20T09:17:52;41.10;;;17.93;;
17832;SDS011;9041;49.718;21.798;2023-12-20T09:20:19;38.50;;;16.67;;
17832;SDS011;9041;49.718;21.798;2023-12-20T09:22:45;45.90;;;16.83;;
17832;SDS011;9041;49.718;21.798;2023-12-20T09:25:14;38.13;;;16.17;;
17832;SDS011;9041;49.718;21.798;2023-12-20T09:27:42;41.27;;;16.27;;
17832;SDS011;9041;49.718;21.798;2023-12-20T09:30:09;34.80;;;14.90;;
17832;SDS011;9041;49.718;21.798;2023-12-20T09:32:37;36.00;;;15.97;;
17832;SDS011;9041;49.718;21.798;2023-12-20T09:35:04;42.83;;;16.47;;
17832;SDS011;9041;49.718;21.798;2023-12-20T09:37:31;39.93;;;15.57;;
17832;SDS011;9041;49.718;21.798;2023-12-20T09:39:58;36.07;;;15.17;;
17832;SDS011;9041;49.718;21.798;2023-12-20T09:42:29;36.43;;;15.77;;
17832;SDS011;9041;49.718;21.798;2023-12-20T09:45:00;41.37;;;17.03;;
17832;SDS011;9041;49.718;21.798;2023-12-20T09:47:28;48.93;;;18.87;;
17832;SDS011;9041;49.718;21.798;2023-12-20T09:49:57;33.67;;;15.77;;
17832;SDS011;9041;49.718;21.798;2023-12-20T09:52:23;40.10;;;17.23;;
17832;SDS011;9041;49.718;21.798;2023-12-20T09:54:53;39.00;;;17.17;;
17832;SDS011;9041;49.718;21.798;2023-12-20T09:57:21;43.20;;;18.17;;
17832;SDS011;9041;49.718;21.798;2023-12-20T09:59:48;38.13;;;17.50;;
17832;SDS011;9041;49.718;21.798;2023-12-20T10:02:14;39.17;;;18.00;;
17832;SDS011;9041;49.718;21.798;2023-12-20T10:04:45;42.77;;;18.60;;
17832;SDS011;9041;49.718;21.798;2023-12-20T10:07:15;54.47;;;22.80;;
17832;SDS011;9041;49.718;21.798;2023-12-20T10:09:42;34.47;;;15.03;;
17832;SDS011;9041;49.718;21.798;2023-12-20T10:12:09;32.33;;;15.53;;
17832;SDS011;9041;49.718;21.798;2023-12-20T10:14:35;39.07;;;17.23;;
17832;SDS011;9041;49.718;21.798;2023-12-20T10:17:02;37.63;;;17.50;;
17832;SDS011;9041;49.718;21.798;2023-12-20T10:19:29;34.63;;;16.90;;
17832;SDS011;9041;49.718;21.798;2023-12-20T10:21:57;39.07;;;16.93;;
17832;SDS011;9041;49.718;21.798;2023-12-20T10:24:25;34.53;;;16.37;;
17832;SDS011;9041;49.718;21.798;2023-12-20T10:27:00;34.70;;;15.53;;
17832;SDS011;9041;49.718;21.798;2023-12-20T10:29:31;36.27;;;15.37;;
17832;SDS011;9041;49.718;21.798;2023-12-20T10:31:58;33.53;;;15.60;;
17832;SDS011;9041;49.718;21.798;2023-12-20T10:34:25;33.47;;;14.67;;
17832;SDS011;9041;49.718;21.798;2023-12-20T10:36:51;36.60;;;16.37;;
17832;SDS011;9041;49.718;21.798;2023-12-20T10:39:20;38.20;;;16.77;;
17832;SDS011;9041;49.718;21.798;2023-12-20T10:41:48;40.87;;;17.27;;
17832;SDS011;9041;49.718;21.798;2023-12-20T10:44:15;34.57;;;15.90;;
17832;SDS011;9041;49.718;21.798;2023-12-20T10:46:42;34.87;;;15.20;;
17832;SDS011;9041;49.718;21.798;2023-12-20T10:49:16;34.23;;;15.20;;
17832;SDS011;9041;49.718;21.798;2023-12-20T10:51:44;35.03;;;15.17;;
17832;SDS011;9041;49.718;21.798;2023-12-20T10:54:17;36.93;;;15.87;;
17832;SDS011;9041;49.718;21.798;2023-12-20T10:56:43;35.67;;;16.40;;
17832;SDS011;9041;49.718;21.798;2023-12-20T10:59:11;35.33;;;15.40;;
17832;SDS011;9041;49.718;21.798;2023-12-20T11:01:40;37.37;;;16.83;;
17832;SDS011;9041;49.718;21.798;2023-12-20T11:04:14;36.67;;;16.70;;
17832;SDS011;9041;49.718;21.798;2023-12-20T11:06:43;38.80;;;16.93;;
17832;SDS011;9041;49.718;21.798;2023-12-20T11:09:14;44.17;;;19.07;;
17832;SDS011;9041;49.718;21.798;2023-12-20T11:11:50;43.03;;;19.23;;
17832;SDS011;9041;49.718;21.798;2023-12-20T11:14:24;40.70;;;18.10;;
17832;SDS011;9041;49.718;21.798;2023-12-20T11:19:38;36.17;;;15.70;;
17832;SDS011;9041;49.718;21.798;2023-12-20T11:22:05;43.73;;;19.47;;
17832;SDS011;9041;49.718;21.798;2023-12-20T11:24:32;47.47;;;20.30;;
17832;SDS011;9041;49.718;21.798;2023-12-20T11:27:00;41.00;;;17.83;;
17832;SDS011;9041;49.718;21.798;2023-12-20T11:29:32;32.77;;;15.67;;
17832;SDS011;9041;49.718;21.798;2023-12-20T11:31:59;40.20;;;16.40;;
17832;SDS011;9041;49.718;21.798;2023-12-20T11:34:27;36.00;;;15.93;;
17832;SDS011;9041;49.718;21.798;2023-12-20T11:36:59;43.43;;;16.27;;
17832;SDS011;9041;49.718;21.798;2023-12-20T11:39:26;36.60;;;16.40;;
17832;SDS011;9041;49.718;21.798;2023-12-20T11:41:55;45.70;;;17.13;;
17832;SDS011;9041;49.718;21.798;2023-12-20T11:44:23;39.57;;;16.50;;
17832;SDS011;9041;49.718;21.798;2023-12-20T11:46:53;39.83;;;15.80;;
17832;SDS011;9041;49.718;21.798;2023-12-20T11:49:24;37.30;;;16.43;;
17832;SDS011;9041;49.718;21.798;2023-12-20T11:51:51;33.73;;;15.73;;
17832;SDS011;9041;49.718;21.798;2023-12-20T11:54:20;39.07;;;16.43;;
17832;SDS011;9041;49.718;21.798;2023-12-20T11:56:47;34.17;;;16.03;;
17832;SDS011;9041;49.718;21.798;2023-12-20T11:59:14;35.67;;;16.87;;
17832;SDS011;9041;49.718;21.798;2023-12-20T12:01:47;36.70;;;17.00;;
17832;SDS011;9041;49.718;21.798;2023-12-20T12:04:15;37.30;;;16.90;;
17832;SDS011;9041;49.718;21.798;2023-12-20T12:06:43;37.37;;;17.60;;
17832;SDS011;9041;49.718;21.798;2023-12-20T12:09:12;41.50;;;20.23;;
17832;SDS011;9041;49.718;21.798;2023-12-20T12:11:39;42.40;;;19.30;;
17832;SDS011;9041;49.718;21.798;2023-12-20T12:14:06;39.57;;;19.40;;
17832;SDS011;9041;49.718;21.798;2023-12-20T12:16:35;41.50;;;19.17;;
17832;SDS011;9041;49.718;21.798;2023-12-20T12:19:02;41.53;;;17.13;;
17832;SDS011;9041;49.718;21.798;2023-12-20T12:21:30;45.10;;;18.40;;
17832;SDS011;9041;49.718;21.798;2023-12-20T12:24:05;43.57;;;19.33;;
17832;SDS011;9041;49.718;21.798;2023-12-20T12:26:33;48.60;;;19.63;;
17832;SDS011;9041;49.718;21.798;2023-12-20T12:28:59;42.17;;;18.37;;
17832;SDS011;9041;49.718;21.798;2023-12-20T12:31:26;54.40;;;23.47;;
17832;SDS011;9041;49.718;21.798;2023-12-20T12:33:53;59.63;;;25.87;;
17832;SDS011;9041;49.718;21.798;2023-12-20T12:36:19;108.40;;;41.27;;
17832;SDS011;9041;49.718;21.798;2023-12-20T12:38:47;107.33;;;40.50;;
17832;SDS011;9041;49.718;21.798;2023-12-20T12:41:14;68.13;;;27.53;;
17832;SDS011;9041;49.718;21.798;2023-12-20T12:43:41;43.43;;;19.00;;
17832;SDS011;9041;49.718;21.798;2023-12-20T12:46:08;44.53;;;19.90;;
17832;SDS011;9041;49.718;21.798;2023-12-20T12:48:35;40.90;;;18.13;;
17832;SDS011;9041;49.718;21.798;2023-12-20T12:51:04;40.97;;;19.80;;
17832;SDS011;9041;49.718;21.798;2023-12-20T12:53:32;54.53;;;23.50;;
17832;SDS011;9041;49.718;21.798;2023-12-20T12:56:00;47.10;;;20.17;;
17832;SDS011;9041;49.718;21.798;2023-12-20T12:58:27;50.93;;;23.10;;
17832;SDS011;9041;49.718;21.798;2023-12-20T13:00:53;62.33;;;27.33;;
17832;SDS011;9041;49.718;21.798;2023-12-20T13:03:20;53.17;;;25.50;;
17832;SDS011;9041;49.718;21.798;2023-12-20T13:05:47;60.93;;;30.27;;
17832;SDS011;9041;49.718;21.798;2023-12-20T13:08:15;63.97;;;31.13;;
17832;SDS011;9041;49.718;21.798;2023-12-20T13:10:41;63.53;;;32.67;;
17832;SDS011;9041;49.718;21.798;2023-12-20T13:13:09;59.17;;;25.70;;
17832;SDS011;9041;49.718;21.798;2023-12-20T13:15:36;49.23;;;25.40;;
17832;SDS011;9041;49.718;21.798;2023-12-20T13:18:05;49.43;;;22.20;;
17832;SDS011;9041;49.718;21.798;2023-12-20T13:20:32;53.83;;;22.00;;
17832;SDS011;9041;49.718;21.798;2023-12-20T13:22:59;50.10;;;23.40;;
17832;SDS011;9041;49.718;21.798;2023-12-20T13:25:25;52.37;;;22.60;;
17832;SDS011;9041;49.718;21.798;2023-12-20T13:27:53;53.37;;;23.10;;
17832;SDS011;9041;49.718;21.798;2023-12-20T13:30:22;48.00;;;20.80;;
17832;SDS011;9041;49.718;21.798;2023-12-20T13:32:54;50.43;;;21.07;;
17832;SDS011;9041;49.718;21.798;2023-12-20T13:35:23;48.60;;;21.47;;
17832;SDS011;9041;49.718;21.798;2023-12-20T13:37:49;51.87;;;22.27;;
17832;SDS011;9041;49.718;21.798;2023-12-20T13:40:17;49.33;;;21.90;;
17832;SDS011;9041;49.718;21.798;2023-12-20T13:42:44;58.73;;;23.40;;
17832;SDS011;9041;49.718;21.798;2023-12-20T13:45:11;47.17;;;22.20;;
17832;SDS011;9041;49.718;21.798;2023-12-20T13:47:39;55.63;;;24.90;;
17832;SDS011;9041;49.718;21.798;2023-12-20T13:50:09;49.73;;;22.43;;
17832;SDS011;9041;49.718;21.798;2023-12-20T13:52:37;54.83;;;23.57;;
17832;SDS011;9041;49.718;21.798;2023-12-20T13:55:04;49.40;;;22.73;;
17832;SDS011;9041;49.718;21.798;2023-12-20T13:57:32;54.43;;;22.63;;
17832;SDS011;9041;49.718;21.798;2023-12-20T14:00:05;55.27;;;23.53;;
17832;SDS011;9041;49.718;21.798;2023-12-20T14:02:39;57.07;;;22.23;;
17832;SDS011;9041;49.718;21.798;2023-12-20T14:05:06;52.70;;;22.90;;
17832;SDS011;9041;49.718;21.798;2023-12-20T14:07:33;53.27;;;22.27;;
17832;SDS011;9041;49.718;21.798;2023-12-20T14:10:03;55.60;;;24.17;;
17832;SDS011;9041;49.718;21.798;2023-12-20T14:12:30;50.53;;;22.47;;
17832;SDS011;9041;49.718;21.798;2023-12-20T14:15:03;56.07;;;24.80;;
17832;SDS011;9041;49.718;21.798;2023-12-20T14:17:34;61.40;;;25.53;;
17832;SDS011;9041;49.718;21.798;2023-12-20T14:20:02;62.70;;;25.60;;
17832;SDS011;9041;49.718;21.798;2023-12-20T14:22:32;83.07;;;32.33;;
17832;SDS011;9041;49.718;21.798;2023-12-20T14:24:58;85.27;;;33.57;;